logo dgac
Martes 06 de Diciembre del 2022
Buscar por aerodromo o helipuerto
Ingrese nombre de aeródromo, localidad o designador OACI:
TAF: TAF SCQP 060416Z 0606/0706 VRB02KT 9999 OVC015 TN12/0609Z TX24/0619Z TEMPO 0607/0611 0800 FG OVC003 BECMG 0613/0615 BKN025 BECMG 0616/0618 26010KT FEW040
TAF del 06/12/2022 a las 04:16 UTC
Para mayor información visite www.meteochile.cl
Período de validez: desde el 06 a las 06:00 UTC hasta el 07 a las 06:00 UTC
Viento: dirección variable, velocidad 2 nudos
Visibilidad: 10 km o más
Nubes: Cubierto a 1500 pies sobre el nivel del aeródromo
Temperatura mínima: 12ºC el 06 a las 09:00 UTC
Temperatura máxima: 24ºC el 06 a las 19:00 UTC
Se espera en forma temporal entre las 07:00 UTC del 06 y las 11:00 UTC del 06:
Visibilidad: 800 metros
Niebla
Nubes: Cubierto a 300 pies sobre el nivel del aeródromo
Se espera un cambio entre las 13:00 UTC del 06 y las 15:00 UTC del 06, :
Nubes: Nublado a 2500 pies sobre el nivel del aeródromo
Se espera un cambio entre las 16:00 UTC del 06 y las 18:00 UTC del 06, :
Viento: dirección 260 grados, velocidad 10 nudos
Nubes: Escasa nubosidad a 4000 pies sobre el nivel del aeródromo